createdAt,value
2023-04-01T00:00:39.853Z,85.32
2023-04-01T00:03:08.420Z,85.19
2023-04-01T00:05:37.095Z,85.58
2023-04-01T00:08:05.989Z,86.45
2023-04-01T00:10:34.706Z,86.29
2023-04-01T00:13:04.688Z,86.85
2023-04-01T00:15:33.400Z,86.71
2023-04-01T00:18:02.338Z,86.60
2023-04-01T00:20:31.158Z,85.97
2023-04-01T00:22:59.581Z,86.81
2023-04-01T00:25:28.009Z,85.72
2023-04-01T00:27:56.430Z,85.46
2023-04-01T00:30:26.488Z,86.47
2023-04-01T00:32:55.096Z,86.44
2023-04-01T00:35:23.658Z,86.21
2023-04-01T00:37:52.159Z,86.24
2023-04-01T00:40:26.983Z,85.87
2023-04-01T00:42:55.591Z,85.69
2023-04-01T00:45:33.770Z,85.95
2023-04-01T00:48:04.493Z,86.62
2023-04-01T00:50:33.456Z,85.84
2023-04-01T00:53:02.845Z,86.14
2023-04-01T00:55:33.739Z,86.02
2023-04-01T00:58:04.327Z,85.91
2023-04-01T01:00:34.632Z,85.45
2023-04-01T01:03:03.851Z,85.51
2023-04-01T01:05:48.657Z,85.90
2023-04-01T01:08:24.395Z,86.10
2023-04-01T01:10:53.702Z,85.66
2023-04-01T01:13:28.144Z,86.06
2023-04-01T01:16:01.382Z,85.92
2023-04-01T01:18:36.642Z,86.43
2023-04-01T01:21:23.428Z,86.15
2023-04-01T01:24:04.438Z,86.42
2023-04-01T01:26:39.748Z,85.97
2023-04-01T01:29:15.323Z,86.83
2023-04-01T01:31:49.079Z,85.79
2023-04-01T01:34:23.284Z,86.52
2023-04-01T01:36:56.827Z,87.19
2023-04-01T01:39:29.082Z,87.16
2023-04-01T01:41:58.539Z,86.53
2023-04-01T01:44:29.215Z,86.61
2023-04-01T01:46:58.873Z,86.89
2023-04-01T01:49:28.668Z,87.09
2023-04-01T01:51:58.811Z,87.09
2023-04-01T01:54:27.320Z,87.53
2023-04-01T01:57:03.376Z,87.24
2023-04-01T01:59:33.368Z,87.70
2023-04-01T02:02:08.649Z,88.12
2023-04-01T02:04:38.398Z,86.94
2023-04-01T02:07:10.273Z,87.43
2023-04-01T02:09:40.572Z,87.21
2023-04-01T02:12:11.554Z,87.64
2023-04-01T02:14:45.926Z,86.83
2023-04-01T02:17:17.732Z,87.45
2023-04-01T02:19:48.934Z,87.23
2023-04-01T02:22:20.501Z,87.68
2023-04-01T02:24:51.066Z,87.24
2023-04-01T02:27:19.613Z,87.56
2023-04-01T02:29:48.222Z,87.75
2023-04-01T02:32:17.220Z,87.95
2023-04-01T02:34:46.011Z,87.56
2023-04-01T02:37:15.610Z,88.24
2023-04-01T02:39:45.480Z,87.82
2023-04-01T02:42:14.023Z,87.88
2023-04-01T02:44:42.791Z,87.77
2023-04-01T02:47:11.322Z,87.53
2023-04-01T02:49:39.913Z,86.64
2023-04-01T02:52:08.470Z,87.41
2023-04-01T02:54:36.848Z,87.87
2023-04-01T02:57:06.868Z,86.87
2023-04-01T02:59:35.440Z,86.66
2023-04-01T03:02:04.021Z,86.68
2023-04-01T03:04:32.405Z,86.43
2023-04-01T03:07:00.907Z,87.21
2023-04-01T03:09:29.429Z,87.00
2023-04-01T03:11:58.473Z,86.77
2023-04-01T03:14:28.517Z,87.19
2023-04-01T03:16:57.258Z,87.11
2023-04-01T03:19:25.680Z,87.26
2023-04-01T03:21:54.746Z,86.78
2023-04-01T03:24:23.211Z,86.87
2023-04-01T03:26:51.724Z,86.78
2023-04-01T03:29:21.169Z,86.93
2023-04-01T03:31:51.084Z,86.89
2023-04-01T03:34:19.599Z,86.39
2023-04-01T03:36:48.033Z,86.58
2023-04-01T03:39:19.827Z,86.54
2023-04-01T03:41:48.722Z,86.92
2023-04-01T03:44:17.168Z,85.99
2023-04-01T03:46:48.752Z,86.75
2023-04-01T03:49:20.950Z,86.68
2023-04-01T03:51:49.612Z,86.25
2023-04-01T03:54:18.213Z,86.94
2023-04-01T03:56:46.771Z,86.33
2023-04-01T03:59:15.373Z,86.16
2023-04-01T04:01:44.022Z,85.82
2023-04-01T04:04:14.372Z,85.87
2023-04-01T04:06:45.305Z,85.35
2023-04-01T04:09:14.104Z,86.15
2023-04-01T04:11:42.521Z,86.51
2023-04-01T04:14:11.036Z,86.53
2023-04-01T04:16:39.585Z,87.10
2023-04-01T04:19:08.658Z,86.86
2023-04-01T04:21:37.080Z,86.80
2023-04-01T04:24:07.576Z,87.05
2023-04-01T04:26:58.773Z,87.12
2023-04-01T04:29:27.254Z,86.94
2023-04-01T04:31:56.127Z,87.81
2023-04-01T04:34:25.352Z,87.96
2023-04-01T04:36:53.743Z,87.01
2023-04-01T04:39:28.581Z,87.65
2023-04-01T04:41:57.925Z,87.13
2023-04-01T04:44:26.437Z,88.01
2023-04-01T04:46:57.195Z,87.95
2023-04-01T04:49:27.053Z,88.54
2023-04-01T04:51:55.802Z,88.67
2023-04-01T04:54:28.547Z,88.31
2023-04-01T04:56:59.840Z,88.91
2023-04-01T04:59:31.415Z,88.63
2023-04-01T05:02:14.262Z,88.27
2023-04-01T05:04:43.194Z,89.07
2023-04-01T05:07:12.760Z,89.02
2023-04-01T05:09:42.711Z,88.58
2023-04-01T05:12:12.882Z,89.37
2023-04-01T05:15:09.355Z,89.14
2023-04-01T05:17:38.256Z,89.17
2023-04-01T05:20:07.172Z,88.87
2023-04-01T05:22:35.628Z,88.86
2023-04-01T05:25:05.739Z,89.10
2023-04-01T05:27:34.212Z,88.34
2023-04-01T05:30:02.885Z,87.81
2023-04-01T05:32:42.363Z,87.61
2023-04-01T05:35:11.074Z,87.35
2023-04-01T05:37:39.522Z,87.50
2023-04-01T05:40:10.694Z,86.94
2023-04-01T05:42:39.192Z,86.99
2023-04-01T05:45:09.901Z,86.42
2023-04-01T05:47:49.310Z,86.11
2023-04-01T05:50:20.527Z,84.97
2023-04-01T05:52:49.003Z,84.99
2023-04-01T05:55:19.618Z,85.90
2023-04-01T05:57:49.693Z,85.53
2023-04-01T06:00:18.468Z,85.43
2023-04-01T06:02:47.735Z,85.23
2023-04-01T06:05:19.414Z,84.61
2023-04-01T06:07:47.951Z,84.83
2023-04-01T06:10:18.572Z,84.81
2023-04-01T06:12:54.172Z,84.43
2023-04-01T06:15:26.824Z,84.24
2023-04-01T06:18:03.701Z,84.35
2023-04-01T06:20:38.350Z,84.49
2023-04-01T06:23:13.536Z,84.80
2023-04-01T06:25:50.680Z,84.66
2023-04-01T06:28:32.443Z,84.32
2023-04-01T06:31:07.401Z,84.10
2023-04-01T06:33:52.491Z,83.97
2023-04-01T06:36:29.412Z,83.50
2023-04-01T06:39:05.144Z,83.01
2023-04-01T06:41:44.563Z,82.88
2023-04-01T06:44:20.577Z,82.97
2023-04-01T06:47:01.375Z,82.20
2023-04-01T06:49:50.653Z,81.82
2023-04-01T06:52:33.888Z,80.97
2023-04-01T06:55:23.305Z,80.85
2023-04-01T06:58:22.038Z,79.96
2023-04-01T07:00:54.396Z,79.05
2023-04-01T07:03:25.956Z,78.53
2023-04-01T07:05:56.339Z,78.00
2023-04-01T07:08:27.014Z,77.35
2023-04-01T07:10:58.022Z,76.63
2023-04-01T07:13:48.552Z,75.93
2023-04-01T07:16:21.252Z,75.47
2023-04-01T07:18:52.748Z,75.61
2023-04-01T07:21:32.107Z,75.56
2023-04-01T07:24:07.649Z,75.54
2023-04-01T07:26:45.839Z,75.36
2023-04-01T07:29:21.880Z,75.05
2023-04-01T07:32:05.968Z,74.62
2023-04-01T07:34:40.550Z,73.93
2023-04-01T07:37:13.771Z,73.36
2023-04-01T07:39:48.415Z,72.85
2023-04-01T07:42:28.465Z,72.35
2023-04-01T07:45:03.287Z,72.18
2023-04-01T07:47:37.275Z,71.95
2023-04-01T07:50:11.438Z,72.02
2023-04-01T07:52:45.317Z,72.02
2023-04-01T07:55:25.879Z,71.61
2023-04-01T07:58:00.130Z,71.22
2023-04-01T08:00:34.563Z,71.27
2023-04-01T08:03:22.987Z,70.76
2023-04-01T08:05:57.513Z,70.54
2023-04-01T08:08:34.079Z,70.31
2023-04-01T08:11:24.663Z,70.29
2023-04-01T08:14:10.595Z,70.31
2023-04-01T08:16:58.096Z,70.61
2023-04-01T08:19:41.147Z,70.33
2023-04-01T08:22:12.792Z,70.04
2023-04-01T08:24:47.634Z,70.13
2023-04-01T08:27:27.558Z,69.49
2023-04-01T08:30:00.886Z,69.49
2023-04-01T08:32:35.324Z,69.24
2023-04-01T08:35:09.784Z,68.71
2023-04-01T08:37:43.540Z,68.46
2023-04-01T08:40:35.532Z,68.13
2023-04-01T08:43:10.788Z,68.04
2023-04-01T08:45:49.855Z,68.11
2023-04-01T08:48:30.713Z,68.32
2023-04-01T08:51:11.209Z,68.10
2023-04-01T08:54:01.886Z,68.21
2023-04-01T08:56:36.417Z,68.07
2023-04-01T08:59:19.598Z,67.58
2023-04-01T09:01:58.961Z,67.44
2023-04-01T09:04:49.439Z,67.21
2023-04-01T09:07:28.018Z,67.19
2023-04-01T09:10:17.559Z,66.81
2023-04-01T09:12:56.852Z,66.39
2023-04-01T09:15:38.525Z,66.30
2023-04-01T09:18:15.866Z,65.94
2023-04-01T09:20:55.037Z,65.92
2023-04-01T09:23:36.493Z,66.33
2023-04-01T09:26:12.877Z,66.70
2023-04-01T09:28:45.683Z,66.48
2023-04-01T09:31:23.595Z,66.55
2023-04-01T09:34:13.414Z,66.24
2023-04-01T09:37:03.231Z,66.45
2023-04-01T09:39:39.978Z,66.19
2023-04-01T09:42:29.509Z,66.41
2023-04-01T09:45:11.293Z,65.89
2023-04-01T09:47:48.418Z,66.06
2023-04-01T09:50:31.493Z,65.15
2023-04-01T09:53:06.992Z,64.58
2023-04-01T09:58:43.599Z,64.21
2023-04-01T10:01:44.873Z,63.74
2023-04-01T10:04:34.119Z,63.62
2023-04-01T10:07:13.557Z,63.74
2023-04-01T10:09:53.283Z,63.61
2023-04-01T10:12:34.947Z,63.70
2023-04-01T10:15:24.351Z,63.25
2023-04-01T10:18:06.340Z,62.94
2023-04-01T10:20:47.820Z,62.78
2023-04-01T10:23:27.101Z,62.99
2023-04-01T10:26:11.117Z,62.49
2023-04-01T10:28:49.087Z,62.60
2023-04-01T10:31:58.850Z,62.85
2023-04-01T10:34:42.337Z,63.09
2023-04-01T10:37:18.338Z,63.06
2023-04-01T10:40:04.713Z,62.97
2023-04-01T10:43:05.426Z,63.06
2023-04-01T10:46:01.847Z,62.16
2023-04-01T10:48:48.036Z,62.23
2023-04-01T10:51:23.007Z,61.55
2023-04-01T10:54:01.596Z,61.79
2023-04-01T10:56:39.816Z,61.52
2023-04-01T10:59:29.929Z,61.06
2023-04-01T11:02:39.194Z,60.67
2023-04-01T11:05:28.896Z,60.67
2023-04-01T11:08:21.091Z,60.47
2023-04-01T11:11:01.652Z,60.21
2023-04-01T11:13:43.092Z,60.03
2023-04-01T11:16:21.690Z,60.27
2023-04-01T11:19:07.990Z,60.04
2023-04-01T11:21:50.423Z,60.15
2023-04-01T11:24:33.498Z,59.83
2023-04-01T11:27:22.595Z,59.37
2023-04-01T11:30:04.424Z,59.37
2023-04-01T11:32:46.605Z,59.89
2023-04-01T11:35:28.852Z,60.12
2023-04-01T11:38:01.500Z,60.16
2023-04-01T11:41:00.766Z,60.33
2023-04-01T11:43:42.638Z,60.34
2023-04-01T11:46:26.346Z,59.65
2023-04-01T11:49:03.254Z,60.26
2023-04-01T11:51:47.544Z,60.02
2023-04-01T11:54:25.513Z,59.69
2023-04-01T11:57:04.251Z,60.01
2023-04-01T11:59:44.685Z,59.44
2023-04-01T12:02:21.285Z,59.07
2023-04-01T12:04:58.330Z,59.69
2023-04-01T12:07:38.646Z,59.52
2023-04-01T12:10:19.261Z,59.44
2023-04-01T12:13:01.200Z,59.37
2023-04-01T12:15:35.401Z,59.20
2023-04-01T12:18:10.578Z,59.48
2023-04-01T12:20:45.516Z,59.68
2023-04-01T12:23:22.575Z,60.22
2023-04-01T12:26:01.887Z,61.54
2023-04-01T12:28:39.723Z,61.54
2023-04-01T12:31:16.659Z,62.53
2023-04-01T12:33:55.310Z,63.10
2023-04-01T12:36:34.538Z,64.83
2023-04-01T12:39:21.632Z,66.79
2023-04-01T12:41:56.025Z,67.80
2023-04-01T12:44:36.682Z,68.88
2023-04-01T12:47:15.726Z,69.34
2023-04-01T12:49:57.937Z,69.40
2023-04-01T12:52:37.679Z,69.19
2023-04-01T12:55:17.883Z,69.19
2023-04-01T12:57:57.350Z,69.12
2023-04-01T13:00:34.618Z,69.64
2023-04-01T13:03:09.645Z,70.49
2023-04-01T13:05:55.977Z,71.47
2023-04-01T13:08:34.285Z,71.45
2023-04-01T13:11:11.700Z,72.32
2023-04-01T13:13:51.564Z,72.86
2023-04-01T13:16:22.761Z,73.27
2023-04-01T13:18:58.163Z,73.72
2023-04-01T13:21:33.197Z,73.53
2023-04-01T13:24:06.064Z,73.12
2023-04-01T13:26:39.332Z,72.71
2023-04-01T13:29:12.624Z,72.44
2023-04-01T13:31:50.298Z,72.31
2023-04-01T13:34:31.366Z,71.33
2023-04-01T13:37:07.152Z,70.97
2023-04-01T13:39:46.443Z,70.66
2023-04-01T13:42:26.154Z,70.33
2023-04-01T13:44:59.031Z,69.60
2023-04-01T13:47:45.517Z,69.20
2023-04-01T13:50:24.835Z,68.06
2023-04-01T13:53:09.334Z,67.21
2023-04-01T13:55:51.270Z,66.36
2023-04-01T13:58:26.865Z,66.31
2023-04-01T14:01:02.652Z,66.01
2023-04-01T14:03:34.767Z,65.95
2023-04-01T14:06:09.627Z,66.08
2023-04-01T14:08:45.509Z,65.26
2023-04-01T14:11:17.865Z,65.56
2023-04-01T14:13:52.896Z,65.70
2023-04-01T14:16:32.132Z,64.69
2023-04-01T14:19:05.681Z,64.83
2023-04-01T14:21:39.098Z,64.15
2023-04-01T14:24:25.365Z,64.34
2023-04-01T14:27:05.384Z,64.19
2023-04-01T14:29:39.371Z,64.75
2023-04-01T14:32:13.666Z,64.90
2023-04-01T14:34:48.690Z,64.41
2023-04-01T14:37:28.217Z,64.25
2023-04-01T14:40:08.542Z,63.88
2023-04-01T14:42:49.165Z,63.15
2023-04-01T14:45:35.863Z,62.48
2023-04-01T14:48:16.443Z,62.19
2023-04-01T14:50:46.935Z,62.21
2023-04-01T14:53:21.240Z,62.23
2023-04-01T14:55:52.451Z,62.05
2023-04-01T14:58:23.036Z,62.39
2023-04-01T15:01:00.698Z,62.43
2023-04-01T15:03:35.285Z,62.53
2023-04-01T15:06:16.009Z,62.80
2023-04-01T15:08:51.695Z,62.00
2023-04-01T15:11:29.583Z,62.00
2023-04-01T15:14:08.962Z,61.72
2023-04-01T15:16:43.086Z,61.98
2023-04-01T15:19:18.193Z,61.87
2023-04-01T15:21:58.127Z,61.68
2023-04-01T15:24:28.345Z,61.35
2023-04-01T15:27:13.777Z,60.96
2023-04-01T15:29:59.056Z,59.88
2023-04-01T15:32:32.701Z,58.83
2023-04-01T15:35:09.358Z,58.20
2023-04-01T15:37:41.292Z,58.02
2023-04-01T15:40:18.243Z,58.36
2023-04-01T15:42:54.048Z,58.75
2023-04-01T15:45:36.545Z,58.54
2023-04-01T15:48:14.744Z,58.32
2023-04-01T15:50:54.468Z,57.53
2023-04-01T15:53:33.835Z,57.68
2023-04-01T15:56:09.587Z,58.13
2023-04-01T15:58:46.100Z,59.15
2023-04-01T16:01:21.921Z,58.91
2023-04-01T16:03:57.028Z,58.66
2023-04-01T16:06:41.813Z,58.79
2023-04-01T16:09:20.171Z,58.75
2023-04-01T16:11:56.160Z,59.71
2023-04-01T16:14:31.623Z,60.47
2023-04-01T16:17:06.222Z,60.53
2023-04-01T16:19:40.288Z,60.78
2023-04-01T16:22:15.232Z,61.00
2023-04-01T16:24:46.902Z,60.92
2023-04-01T16:27:19.311Z,60.49
2023-04-01T16:29:51.058Z,60.44
2023-04-01T16:32:29.481Z,60.67
2023-04-01T16:35:04.434Z,60.69
2023-04-01T16:37:39.053Z,61.83
2023-04-01T16:40:15.293Z,62.16
2023-04-01T16:42:49.093Z,62.08
